createdAt,value
2022-08-12T00:02:45.045Z,2.60
2022-08-12T00:05:34.058Z,2.35
2022-08-12T00:08:30.911Z,2.63
2022-08-12T00:11:22.230Z,2.55
2022-08-12T00:14:07.572Z,2.55
2022-08-12T00:16:53.562Z,2.60
2022-08-12T00:19:40.503Z,2.90
2022-08-12T00:22:28.099Z,2.80
2022-08-12T00:25:17.567Z,2.35
2022-08-12T00:28:04.180Z,2.90
2022-08-12T00:30:50.052Z,2.80
2022-08-12T00:33:51.727Z,2.50
2022-08-12T00:36:45.317Z,2.63
2022-08-12T00:39:30.995Z,2.60
2022-08-12T00:42:10.470Z,2.50
2022-08-12T00:44:38.732Z,2.50
2022-08-12T00:47:06.806Z,2.42
2022-08-12T00:49:39.592Z,2.50
2022-08-12T00:52:12.564Z,3.00
2022-08-12T00:54:44.186Z,2.90
2022-08-12T01:05:02.695Z,2.80
2022-08-12T01:07:52.091Z,2.80
2022-08-12T01:10:37.171Z,2.72
2022-08-12T01:13:07.235Z,2.83
2022-08-12T01:15:48.093Z,2.80
2022-08-12T01:18:17.727Z,2.70
2022-08-12T01:20:54.668Z,2.65
2022-08-12T01:24:29.972Z,2.55
2022-08-12T01:26:53.559Z,2.80
2022-08-12T01:29:26.165Z,2.85
2022-08-12T01:31:58.002Z,2.72
2022-08-12T01:34:36.212Z,2.70
2022-08-12T01:37:07.348Z,2.78
2022-08-12T01:40:35.259Z,2.90
2022-08-12T01:42:34.036Z,2.80
2022-08-12T01:45:04.063Z,2.55
2022-08-12T01:47:43.083Z,2.30
2022-08-12T01:50:21.982Z,3.03
2022-08-12T01:53:05.643Z,2.70
2022-08-12T01:55:38.980Z,2.60
2022-08-12T01:58:24.111Z,2.67
2022-08-12T02:00:59.636Z,2.95
2022-08-12T02:04:02.983Z,2.80
2022-08-12T02:06:53.270Z,2.80
2022-08-12T02:09:47.332Z,3.03
2022-08-12T02:12:33.106Z,3.08
2022-08-12T02:15:21.353Z,3.00
2022-08-12T02:18:12.290Z,3.00
2022-08-12T02:20:54.072Z,2.90
2022-08-12T02:23:26.770Z,2.80
2022-08-12T02:25:59.344Z,3.03
2022-08-12T02:28:28.167Z,3.15
2022-08-12T02:31:02.709Z,3.20
2022-08-12T02:33:31.588Z,2.90
2022-08-12T02:36:01.773Z,3.08
2022-08-12T02:38:31.157Z,3.03
2022-08-12T02:41:02.322Z,2.97
2022-08-12T02:43:37.186Z,3.05
2022-08-12T02:46:13.792Z,2.90
2022-08-12T02:48:52.576Z,3.37
2022-08-12T02:51:24.149Z,2.83
2022-08-12T02:54:04.536Z,3.10
2022-08-12T02:56:34.645Z,3.03
2022-08-12T02:59:03.043Z,3.03
2022-08-12T03:01:34.168Z,3.30
2022-08-12T03:04:05.138Z,2.90
2022-08-12T03:06:38.442Z,3.30
2022-08-12T03:09:09.391Z,3.20
2022-08-12T03:11:48.663Z,2.88
2022-08-12T03:14:18.022Z,3.28
2022-08-12T03:16:52.473Z,3.13
2022-08-12T03:19:21.626Z,3.17
2022-08-12T03:21:52.687Z,3.28
2022-08-12T03:24:39.187Z,3.00
2022-08-12T03:27:10.035Z,3.33
2022-08-12T03:29:49.980Z,3.10
2022-08-12T03:32:35.547Z,3.20
2022-08-12T03:35:07.244Z,3.20
2022-08-12T03:37:38.345Z,3.40
2022-08-12T03:40:08.764Z,3.00
2022-08-12T03:42:40.660Z,3.40
2022-08-12T03:45:52.143Z,3.08
2022-08-12T03:48:39.748Z,3.20
2022-08-12T03:51:26.409Z,3.25
2022-08-12T03:54:12.007Z,3.10
2022-08-12T03:56:58.218Z,3.10
2022-08-12T03:59:43.864Z,3.13
2022-08-12T04:02:15.620Z,3.10
2022-08-12T04:04:47.267Z,3.35
2022-08-12T04:07:18.581Z,3.30
2022-08-12T04:09:47.982Z,3.30
2022-08-12T04:12:33.553Z,3.50
2022-08-12T04:15:02.606Z,3.50
2022-08-12T04:17:31.255Z,3.10
2022-08-12T04:20:02.011Z,3.55
2022-08-12T04:22:30.816Z,3.30
2022-08-12T04:25:01.876Z,3.90
2022-08-12T04:27:31.481Z,3.30
2022-08-12T04:30:21.084Z,3.30
2022-08-12T04:32:49.829Z,3.30
2022-08-12T04:35:19.723Z,3.55
2022-08-12T04:37:58.627Z,3.20
2022-08-12T04:40:29.818Z,3.20
2022-08-12T04:42:58.854Z,3.42
2022-08-12T04:45:26.626Z,3.35
2022-08-12T04:47:54.372Z,3.30
2022-08-12T04:50:35.170Z,3.25
2022-08-12T04:53:05.619Z,3.55
2022-08-12T04:55:34.815Z,3.40
2022-08-12T04:58:02.782Z,3.80
2022-08-12T05:00:30.558Z,3.55
2022-08-12T05:02:58.399Z,3.60
2022-08-12T05:05:30.340Z,3.60
2022-08-12T05:08:00.434Z,3.42
2022-08-12T05:10:33.659Z,3.50
2022-08-12T05:13:08.512Z,3.10
2022-08-12T05:16:00.263Z,3.70
2022-08-12T05:18:29.444Z,3.22
2022-08-12T05:20:59.771Z,3.20
2022-08-12T05:23:28.214Z,3.35
2022-08-12T05:25:57.499Z,3.42
2022-08-12T05:28:26.879Z,3.40
2022-08-12T05:30:54.914Z,3.40
2022-08-12T05:33:31.483Z,3.40
2022-08-12T05:36:00.462Z,3.20
2022-08-12T05:38:45.797Z,3.40
2022-08-12T05:41:20.303Z,3.20
2022-08-12T05:43:51.196Z,3.45
2022-08-12T05:46:19.407Z,3.08
2022-08-12T05:48:47.255Z,3.28
2022-08-12T05:51:16.817Z,3.30
2022-08-12T05:53:44.696Z,3.30
2022-08-12T05:56:31.198Z,3.45
2022-08-12T05:59:00.019Z,3.00
2022-08-12T06:02:12.107Z,3.30
2022-08-12T06:04:17.260Z,3.35
2022-08-12T06:06:51.546Z,3.10
2022-08-12T06:09:19.297Z,3.33
2022-08-12T06:12:04.556Z,3.38
2022-08-12T06:14:36.522Z,3.17
2022-08-12T06:17:05.874Z,3.20
2022-08-12T06:20:26.541Z,3.25
2022-08-12T06:22:22.767Z,3.03
2022-08-12T06:24:52.878Z,2.90
2022-08-12T06:27:21.812Z,2.85
2022-08-12T06:30:08.936Z,2.90
2022-08-12T06:32:42.709Z,3.17
2022-08-12T06:35:24.895Z,2.90
2022-08-12T06:38:17.391Z,2.67
2022-08-12T06:41:04.058Z,2.60
2022-08-12T06:44:05.505Z,2.60
2022-08-12T06:46:21.967Z,2.63
2022-08-12T06:48:55.040Z,2.40
2022-08-12T06:51:22.705Z,2.40
2022-08-12T06:53:51.753Z,2.08
2022-08-12T06:56:19.561Z,2.25
2022-08-12T06:58:47.216Z,2.38
2022-08-12T07:01:15.036Z,2.40
2022-08-12T07:03:42.970Z,2.00
2022-08-12T07:06:13.545Z,2.30
2022-08-12T07:08:43.546Z,2.22
2022-08-12T07:11:15.526Z,2.13
2022-08-12T07:14:02.533Z,2.00
2022-08-12T07:16:52.134Z,2.03
2022-08-12T07:19:20.847Z,2.30
2022-08-12T07:21:59.668Z,2.22
2022-08-12T07:24:30.143Z,2.13
2022-08-12T07:27:00.048Z,2.00
2022-08-12T07:29:58.298Z,2.15
2022-08-12T07:32:15.963Z,2.10
2022-08-12T07:34:43.630Z,2.50
2022-08-12T07:37:11.405Z,2.28
2022-08-12T07:39:51.027Z,2.22
2022-08-12T07:42:28.670Z,2.17
2022-08-12T07:44:56.863Z,2.47
2022-08-12T07:47:25.110Z,2.00
2022-08-12T07:50:05.040Z,2.05
2022-08-12T07:52:33.709Z,2.15
2022-08-12T07:55:01.775Z,2.08
2022-08-12T07:57:32.351Z,2.17
2022-08-12T08:00:04.767Z,2.13
2022-08-12T08:02:33.585Z,2.35
2022-08-12T08:05:01.256Z,2.22
2022-08-12T08:07:31.201Z,2.30
2022-08-12T08:10:00.129Z,1.98
2022-08-12T08:12:47.895Z,2.15
2022-08-12T08:15:16.472Z,2.08
2022-08-12T08:17:56.494Z,1.92
2022-08-12T08:20:28.315Z,2.00
2022-08-12T08:22:59.660Z,2.20
2022-08-12T08:25:37.304Z,1.90
2022-08-12T08:28:10.506Z,2.28
2022-08-12T08:30:43.289Z,2.40
2022-08-12T08:33:24.374Z,2.25
2022-08-12T08:36:02.152Z,2.10
2022-08-12T08:38:33.145Z,2.00
2022-08-12T08:42:17.087Z,2.15
2022-08-12T08:44:11.744Z,1.83
2022-08-12T08:46:40.025Z,1.90
2022-08-12T08:49:08.469Z,1.80
2022-08-12T08:51:36.440Z,2.15
2022-08-12T08:54:06.800Z,2.00
2022-08-12T08:56:34.626Z,2.30
2022-08-12T08:59:02.337Z,1.90
2022-08-12T09:01:37.465Z,1.90
2022-08-12T09:05:07.351Z,2.30
2022-08-12T09:06:56.698Z,1.70
2022-08-12T09:09:24.839Z,2.00
2022-08-12T09:12:27.325Z,1.80
2022-08-12T09:14:55.348Z,1.85
2022-08-12T09:17:24.412Z,2.20
2022-08-12T09:19:57.512Z,1.73
2022-08-12T09:22:28.572Z,1.77
2022-08-12T09:24:59.893Z,1.92
2022-08-12T09:27:57.450Z,1.90
2022-08-12T09:30:17.849Z,1.95
2022-08-12T09:33:18.865Z,1.70
2022-08-12T09:36:04.209Z,1.80
2022-08-12T09:38:35.283Z,1.80
2022-08-12T09:42:33.313Z,1.67
2022-08-12T09:44:16.968Z,1.88
2022-08-12T09:46:58.169Z,1.60
2022-08-12T09:49:27.234Z,1.92
2022-08-12T09:51:55.720Z,1.70
2022-08-12T09:54:34.168Z,1.80
2022-08-12T09:58:07.801Z,1.80
2022-08-12T10:00:15.874Z,1.65
2022-08-12T10:03:00.787Z,1.50
2022-08-12T10:06:20.402Z,1.75
2022-08-12T10:08:27.315Z,1.63
2022-08-12T10:11:20.062Z,1.60
2022-08-12T10:13:49.960Z,1.67
2022-08-12T10:16:22.322Z,1.60
2022-08-12T10:18:54.508Z,1.60
2022-08-12T10:21:36.316Z,1.55
2022-08-12T10:24:06.505Z,1.70
2022-08-12T10:26:54.287Z,1.55
2022-08-12T10:30:03.331Z,1.88
2022-08-12T10:33:02.438Z,2.05
2022-08-12T10:35:15.091Z,1.77
2022-08-12T10:38:33.325Z,1.95
2022-08-12T10:40:34.282Z,1.95
2022-08-12T10:43:23.100Z,1.50
2022-08-12T10:45:51.790Z,1.92
2022-08-12T10:48:26.953Z,1.50
2022-08-12T10:52:03.057Z,1.67
2022-08-12T10:54:00.787Z,1.90
2022-08-12T10:56:34.542Z,1.50
2022-08-12T10:59:03.822Z,1.75
2022-08-12T11:04:15.087Z,1.50
2022-08-12T11:04:41.219Z,1.77
2022-08-12T11:08:34.548Z,1.67
2022-08-12T11:10:01.616Z,1.83
2022-08-12T11:12:56.258Z,1.70
2022-08-12T11:15:33.402Z,1.60
2022-08-12T11:18:11.935Z,1.65
2022-08-12T11:20:47.535Z,1.60
2022-08-12T11:23:26.142Z,1.60
2022-08-12T11:26:06.289Z,1.60
2022-08-12T11:28:37.005Z,1.65
2022-08-12T11:31:12.261Z,1.60
2022-08-12T11:34:06.322Z,1.70
2022-08-12T11:36:30.859Z,1.60
2022-08-12T11:39:04.205Z,1.50
2022-08-12T11:41:34.864Z,1.70
2022-08-12T11:44:36.504Z,1.70
2022-08-12T11:46:53.010Z,1.55
2022-08-12T11:49:26.904Z,1.50
2022-08-12T11:51:59.763Z,1.50
2022-08-12T11:54:29.643Z,1.65
2022-08-12T11:57:00.566Z,1.55
2022-08-12T12:01:58.895Z,1.50
2022-08-12T12:02:20.567Z,1.48
2022-08-12T12:04:52.461Z,1.45
2022-08-12T12:07:22.419Z,1.55
2022-08-12T12:09:53.533Z,1.60
2022-08-12T12:12:25.229Z,1.55
2022-08-12T12:14:54.214Z,1.73
2022-08-12T12:17:22.918Z,1.83
2022-08-12T12:19:50.816Z,1.60
2022-08-12T12:22:23.683Z,1.60
2022-08-12T12:24:58.929Z,1.60
2022-08-12T12:28:05.790Z,1.40
2022-08-12T12:30:34.454Z,1.70
2022-08-12T12:33:02.169Z,1.70
2022-08-12T12:36:17.019Z,1.75
2022-08-12T12:38:18.416Z,1.63
2022-08-12T12:40:50.487Z,1.60
2022-08-12T12:43:29.101Z,1.52
2022-08-12T12:46:08.831Z,1.70
2022-08-12T12:48:36.765Z,1.50
2022-08-12T12:51:49.136Z,1.60
2022-08-12T12:54:09.983Z,1.45
2022-08-12T12:56:41.798Z,1.70
2022-08-12T12:59:54.935Z,1.98
2022-08-12T13:02:07.793Z,1.63
2022-08-12T13:04:37.526Z,1.60
2022-08-12T13:07:06.718Z,1.45
2022-08-12T13:09:36.396Z,1.50
2022-08-12T13:12:08.087Z,1.50
2022-08-12T13:14:39.878Z,1.70
2022-08-12T13:17:09.549Z,1.80
2022-08-12T13:19:45.249Z,2.40
2022-08-12T13:22:23.716Z,2.08
2022-08-12T13:24:56.492Z,1.60
2022-08-12T13:27:58.302Z,1.70
2022-08-12T13:30:28.390Z,1.40
2022-08-12T13:32:58.669Z,1.70
2022-08-12T13:36:02.766Z,1.25
2022-08-12T13:38:15.114Z,1.58
2022-08-12T13:40:55.898Z,1.75
2022-08-12T13:43:40.513Z,1.25
2022-08-12T13:46:14.401Z,1.30
2022-08-12T13:48:45.338Z,1.30
2022-08-12T13:51:13.593Z,1.40
2022-08-12T13:53:57.564Z,1.50
2022-08-12T13:56:35.062Z,1.58
2022-08-12T13:59:05.533Z,1.63
2022-08-12T14:01:40.699Z,1.60
2022-08-12T14:04:11.734Z,1.42
2022-08-12T14:06:39.971Z,1.65
2022-08-12T14:09:17.611Z,1.50
2022-08-12T14:11:51.291Z,1.40
2022-08-12T14:14:27.764Z,1.40
2022-08-12T14:17:05.493Z,1.45
2022-08-12T14:19:48.714Z,1.50
2022-08-12T14:22:20.751Z,1.42
2022-08-12T14:24:53.578Z,1.50
2022-08-12T14:28:04.589Z,1.40
2022-08-12T14:30:15.470Z,1.30
2022-08-12T14:32:46.397Z,1.17
2022-08-12T14:35:14.943Z,1.50
2022-08-12T14:37:56.367Z,1.65
2022-08-12T14:40:28.591Z,1.58
2022-08-12T14:42:57.966Z,1.40
2022-08-12T14:45:45.114Z,1.30
2022-08-12T14:48:16.689Z,1.38
2022-08-12T14:51:09.796Z,1.58
2022-08-12T14:59:57.589Z,1.25
2022-08-12T15:02:20.606Z,1.10
2022-08-12T15:04:56.053Z,1.20
2022-08-12T15:07:34.290Z,1.33
2022-08-12T15:10:13.401Z,1.55
2022-08-12T15:12:41.564Z,1.20
2022-08-12T15:15:11.322Z,1.15
2022-08-12T15:17:39.255Z,1.27
2022-08-12T15:20:31.568Z,1.30
2022-08-12T15:22:58.060Z,1.20
2022-08-12T15:25:25.954Z,1.30
2022-08-12T15:28:05.738Z,1.30
2022-08-12T15:30:37.086Z,1.42
2022-08-12T15:33:12.377Z,1.17
2022-08-12T15:35:52.838Z,1.40
2022-08-12T15:38:28.173Z,1.40
2022-08-12T15:40:59.109Z,1.40
2022-08-12T15:44:15.878Z,1.40
2022-08-12T15:46:18.144Z,1.25
2022-08-12T15:48:49.323Z,1.30
2022-08-12T15:51:58.402Z,1.33
2022-08-12T15:54:30.851Z,1.10
2022-08-12T15:57:08.394Z,1.10
2022-08-12T15:59:51.649Z,1.35
2022-08-12T16:02:29.401Z,0.90
2022-08-12T16:04:57.979Z,1.10
2022-08-12T16:07:32.639Z,1.20
2022-08-12T16:10:08.159Z,1.30
2022-08-12T16:12:42.150Z,1.20
2022-08-12T16:15:19.850Z,1.35
2022-08-12T16:18:15.413Z,1.60
2022-08-12T16:20:40.038Z,1.27
2022-08-12T16:23:26.367Z,1.17
2022-08-12T16:26:05.811Z,1.23
2022-08-12T16:28:38.234Z,1.10
2022-08-12T16:31:10.156Z,1.30
2022-08-12T16:33:56.321Z,1.27
2022-08-12T16:36:29.427Z,1.10
2022-08-12T16:39:01.325Z,1.00
2022-08-12T16:41:33.486Z,1.05
2022-08-12T16:44:08.634Z,1.38
2022-08-12T16:46:37.540Z,1.35
2022-08-12T16:49:09.325Z,1.50
2022-08-12T16:51:46.286Z,1.52
2022-08-12T16:54:18.452Z,1.63
2022-08-12T16:56:54.801Z,1.25
2022-08-12T16:59:30.856Z,6.15
2022-08-12T17:02:00.407Z,2.70
2022-08-12T17:04:29.258Z,1.20
2022-08-12T17:06:56.943Z,1.10
2022-08-12T17:09:34.159Z,0.98
2022-08-12T17:12:08.917Z,1.08
2022-08-12T17:14:38.034Z,1.40
2022-08-12T17:17:18.404Z,1.17
2022-08-12T17:20:35.267Z,1.42
2022-08-12T17:22:52.698Z,1.35
2022-08-12T17:25:23.669Z,1.30
2022-08-12T17:27:57.310Z,1.10
2022-08-12T17:30:27.539Z,2.28
2022-08-12T17:32:56.647Z,1.23
2022-08-12T17:35:37.008Z,1.30
2022-08-12T17:38:09.328Z,1.60
2022-08-12T17:40:43.159Z,1.20
2022-08-12T17:43:52.196Z,1.25
2022-08-12T17:46:13.218Z,1.10
2022-08-12T17:48:55.540Z,1.23
2022-08-12T17:51:25.810Z,1.27
2022-08-12T17:54:11.646Z,1.10
2022-08-12T17:56:43.546Z,1.17
2022-08-12T17:59:13.095Z,1.25
2022-08-12T18:01:44.448Z,1.10
2022-08-12T18:04:21.392Z,1.30
2022-08-12T18:06:50.918Z,1.20
2022-08-12T18:09:19.649Z,1.25
2022-08-12T18:12:08.158Z,1.15
2022-08-12T18:14:38.322Z,1.40
2022-08-12T18:17:11.344Z,1.27
2022-08-12T18:20:06.205Z,1.40
2022-08-12T18:22:39.417Z,1.23
2022-08-12T18:26:11.549Z,1.30
2022-08-12T18:28:15.583Z,1.27
2022-08-12T18:30:53.261Z,1.30
2022-08-12T18:33:25.630Z,1.10
2022-08-12T18:35:57.070Z,1.65
2022-08-12T18:38:27.754Z,1.52
2022-08-12T18:41:22.013Z,1.70
2022-08-12T18:43:59.651Z,1.67
2022-08-12T18:46:34.769Z,1.70
2022-08-12T18:49:16.991Z,1.40
2022-08-12T18:51:55.073Z,1.67
2022-08-12T18:54:26.740Z,1.60
2022-08-12T18:56:57.957Z,1.67
2022-08-12T18:59:59.896Z,1.67
2022-08-12T19:02:21.987Z,2.00
2022-08-12T19:04:53.202Z,1.65
2022-08-12T19:07:23.116Z,1.55
2022-08-12T19:09:58.650Z,2.53
2022-08-12T19:12:55.396Z,1.67
2022-08-12T19:15:26.882Z,1.60
2022-08-12T19:18:00.470Z,1.75
2022-08-12T19:20:31.617Z,1.55
2022-08-12T19:23:07.881Z,1.50
2022-08-12T19:26:01.207Z,1.85
2022-08-12T19:28:34.866Z,1.80
2022-08-12T19:31:45.119Z,1.40
2022-08-12T19:34:56.359Z,1.60
2022-08-12T19:37:20.184Z,1.63
2022-08-12T19:40:08.992Z,1.55
2022-08-12T19:42:42.629Z,1.60
2022-08-12T19:45:14.035Z,1.30
2022-08-12T19:47:46.644Z,1.52
2022-08-12T19:50:19.763Z,1.58
2022-08-12T19:52:53.071Z,1.60
2022-08-12T19:55:23.407Z,1.63
2022-08-12T19:58:02.396Z,1.48
2022-08-12T20:00:34.511Z,1.55
2022-08-12T20:03:06.144Z,1.40
2022-08-12T20:06:05.171Z,1.60
2022-08-12T20:08:33.989Z,1.40
2022-08-12T20:12:14.725Z,1.40
2022-08-12T20:14:00.384Z,1.33
2022-08-12T20:16:53.155Z,1.65
2022-08-12T20:19:20.771Z,1.30
2022-08-12T20:21:49.482Z,1.55
2022-08-12T20:24:19.339Z,1.65
2022-08-12T20:26:48.952Z,1.40
2022-08-12T20:29:16.823Z,1.70
2022-08-12T20:31:45.797Z,1.70
2022-08-12T20:34:21.098Z,1.30
2022-08-12T20:36:57.363Z,1.70
2022-08-12T20:39:52.532Z,1.70
2022-08-12T20:42:23.065Z,1.40
2022-08-12T20:44:52.919Z,1.58
2022-08-12T20:47:20.767Z,1.52
2022-08-12T20:49:55.617Z,1.35
2022-08-12T20:52:30.533Z,1.40
2022-08-12T20:55:01.789Z,1.33
2022-08-12T20:57:37.423Z,1.20
2022-08-12T21:00:14.217Z,1.80
2022-08-12T21:02:43.575Z,1.60
2022-08-12T21:06:09.598Z,1.48
2022-08-12T21:08:19.354Z,1.45
2022-08-12T21:10:51.368Z,1.42
2022-08-12T21:13:20.904Z,1.40
2022-08-12T21:15:55.042Z,1.48
2022-08-12T21:18:31.754Z,1.67
2022-08-12T21:21:01.037Z,1.60
2022-08-12T21:23:30.790Z,1.40
2022-08-12T21:26:01.607Z,1.73
2022-08-12T21:28:31.138Z,1.40
2022-08-12T21:32:37.681Z,1.20
2022-08-12T21:34:06.454Z,1.48
2022-08-12T21:36:40.354Z,1.30
2022-08-12T21:39:18.797Z,1.52
2022-08-12T21:41:51.496Z,1.50
2022-08-12T21:44:32.555Z,1.73
2022-08-12T21:47:18.259Z,1.40
2022-08-12T21:49:53.939Z,1.70
2022-08-12T21:52:28.298Z,1.40
2022-08-12T21:55:03.200Z,1.27
2022-08-12T21:57:36.552Z,1.50
2022-08-12T22:00:18.952Z,1.30
2022-08-12T22:03:04.602Z,1.30
2022-08-12T22:05:50.342Z,1.40
2022-08-12T22:08:25.381Z,1.40
2022-08-12T22:10:56.400Z,1.65
2022-08-12T22:14:02.990Z,1.38
2022-08-12T22:16:13.650Z,1.60
2022-08-12T22:18:50.418Z,1.48
2022-08-12T22:21:22.224Z,1.38
2022-08-12T22:24:04.878Z,1.40
2022-08-12T22:26:37.270Z,1.55
2022-08-12T22:29:26.864Z,1.50
2022-08-12T22:31:55.777Z,1.48
2022-08-12T22:34:29.307Z,1.48
2022-08-12T22:36:57.845Z,1.63
2022-08-12T22:39:27.180Z,1.52
2022-08-12T22:42:12.250Z,1.42
2022-08-12T22:44:57.682Z,1.40
2022-08-12T22:47:49.674Z,1.50
2022-08-12T22:50:28.029Z,1.40
2022-08-12T22:53:14.994Z,1.50
2022-08-12T22:55:59.576Z,1.50
2022-08-12T22:58:31.851Z,1.35
2022-08-12T23:01:02.175Z,1.60
2022-08-12T23:03:47.925Z,1.50
2022-08-12T23:06:21.869Z,1.30
2022-08-12T23:08:49.821Z,1.40
2022-08-12T23:11:23.935Z,1.55
2022-08-12T23:13:55.463Z,1.33
2022-08-12T23:16:31.449Z,1.38
2022-08-12T23:19:09.458Z,1.58
2022-08-12T23:22:04.107Z,1.70
2022-08-12T23:24:26.792Z,1.30
2022-08-12T23:27:13.914Z,1.48
2022-08-12T23:29:42.816Z,1.75
2022-08-12T23:32:13.413Z,1.85
2022-08-12T23:35:02.600Z,1.33
2022-08-12T23:37:46.355Z,1.50
2022-08-12T23:40:18.188Z,1.60
2022-08-12T23:42:48.799Z,1.58
2022-08-12T23:45:20.598Z,1.40
2022-08-12T23:47:59.045Z,1.50
2022-08-12T23:50:34.184Z,1.50
2022-08-12T23:53:05.456Z,1.58
2022-08-12T23:55:38.178Z,1.30
2022-08-12T23:58:22.497Z,1.50
